createdAt,value
2018-11-01T00:01:46.720Z,10.40
2018-11-01T00:02:46.714Z,10.20
2018-11-01T00:04:39.815Z,8.40
2018-11-01T00:05:39.701Z,8.20
2018-11-01T00:07:33.376Z,11.40
2018-11-01T00:08:33.409Z,8.40
2018-11-01T00:10:26.763Z,9.70
2018-11-01T00:11:26.436Z,9.70
2018-11-01T00:13:21.099Z,11.60
2018-11-01T00:14:21.097Z,9.70
2018-11-01T00:16:14.440Z,8.40
2018-11-01T00:17:14.085Z,11.80
2018-11-01T00:19:07.955Z,10.10
2018-11-01T00:20:07.799Z,11.00
2018-11-01T00:22:01.215Z,9.70
2018-11-01T00:23:00.820Z,11.00
2018-11-01T00:24:53.733Z,10.70
2018-11-01T00:25:53.973Z,10.60
2018-11-01T00:27:47.127Z,9.30
2018-11-01T00:28:47.073Z,10.30
2018-11-01T00:30:41.021Z,9.60
2018-11-01T00:31:40.999Z,9.20
2018-11-01T00:33:34.351Z,10.50
2018-11-01T00:34:34.327Z,10.10
2018-11-01T00:36:28.040Z,10.10
2018-11-01T00:37:27.976Z,10.20
2018-11-01T00:39:21.411Z,9.50
2018-11-01T00:40:21.031Z,10.00
2018-11-01T00:42:14.804Z,12.30
2018-11-01T00:43:14.763Z,10.80
2018-11-01T00:45:07.619Z,11.00
2018-11-01T00:46:07.317Z,9.30
2018-11-01T00:48:00.718Z,12.30
2018-11-01T00:49:00.652Z,13.50
2018-11-01T00:50:54.410Z,10.90
2018-11-01T00:51:54.338Z,10.00
2018-11-01T00:53:47.769Z,16.60
2018-11-01T00:54:47.381Z,11.40
2018-11-01T00:56:42.106Z,12.00
2018-11-01T00:57:42.097Z,9.50
2018-11-01T00:59:37.500Z,11.20
2018-11-01T01:00:35.423Z,11.20
2018-11-01T01:02:28.845Z,10.80
2018-11-01T01:03:29.046Z,11.20
2018-11-01T01:05:22.198Z,8.70
2018-11-01T01:06:22.186Z,9.00
2018-11-01T01:08:15.198Z,11.80
2018-11-01T01:09:15.504Z,13.50
2018-11-01T01:11:08.813Z,11.70
2018-11-01T01:12:08.788Z,12.60
2018-11-01T01:14:02.491Z,10.90
2018-11-01T01:15:01.856Z,17.40
2018-11-01T01:16:55.253Z,8.90
2018-11-01T01:17:55.202Z,11.20
2018-11-01T01:19:48.103Z,9.50
2018-11-01T01:20:48.081Z,12.00
2018-11-01T01:22:41.441Z,7.90
2018-11-01T01:23:41.425Z,9.50
2018-11-01T01:25:34.290Z,9.20
2018-11-01T01:26:34.285Z,12.30
2018-11-01T01:28:27.993Z,9.00
2018-11-01T01:29:27.629Z,14.70
2018-11-01T01:31:20.924Z,10.70
2018-11-01T01:32:20.801Z,10.80
2018-11-01T01:34:14.285Z,10.20
2018-11-01T01:35:13.884Z,10.80
2018-11-01T01:37:06.861Z,10.40
2018-11-01T01:38:07.051Z,6.90
2018-11-01T01:40:00.612Z,10.40
2018-11-01T01:41:00.060Z,6.70
2018-11-01T01:42:53.876Z,10.10
2018-11-01T01:43:53.444Z,7.70
2018-11-01T01:45:47.696Z,9.80
2018-11-01T01:46:47.102Z,11.60
2018-11-01T01:48:41.469Z,8.30
2018-11-01T01:49:39.611Z,7.40
2018-11-01T01:51:33.317Z,7.80
2018-11-01T01:52:32.731Z,7.20
2018-11-01T01:54:26.317Z,7.30
2018-11-01T01:55:26.159Z,8.10
2018-11-01T01:57:21.303Z,6.90
2018-11-01T01:58:20.557Z,7.80
2018-11-01T02:00:14.993Z,13.10
2018-11-01T02:01:14.501Z,9.70
2018-11-01T02:03:06.836Z,10.70
2018-11-01T02:04:06.785Z,7.90
2018-11-01T02:06:00.173Z,13.20
2018-11-01T02:07:00.347Z,12.70
2018-11-01T02:08:53.520Z,7.70
2018-11-01T02:09:53.351Z,10.40
2018-11-01T02:11:46.627Z,9.50
2018-11-01T02:12:46.472Z,9.80
2018-11-01T02:14:40.861Z,7.10
2018-11-01T02:15:41.405Z,8.50
2018-11-01T02:17:34.198Z,8.30
2018-11-01T02:18:34.171Z,10.90
2018-11-01T02:20:28.801Z,7.20
2018-11-01T02:21:28.520Z,7.00
2018-11-01T02:23:21.963Z,8.20
2018-11-01T02:24:21.880Z,10.30
2018-11-01T02:26:15.338Z,12.80
2018-11-01T02:27:15.010Z,8.50
2018-11-01T02:29:09.961Z,9.00
2018-11-01T02:30:08.381Z,9.80
2018-11-01T02:32:02.094Z,10.50
2018-11-01T02:33:02.012Z,11.20
2018-11-01T02:34:55.385Z,8.10
2018-11-01T02:35:55.401Z,7.10
2018-11-01T02:37:49.862Z,7.20
2018-11-01T02:38:49.834Z,7.80
2018-11-01T02:40:43.175Z,9.40
2018-11-01T02:41:43.157Z,7.50
2018-11-01T02:43:35.865Z,9.00
2018-11-01T02:44:35.674Z,9.30
2018-11-01T02:46:29.435Z,7.20
2018-11-01T02:47:28.831Z,7.70
2018-11-01T02:49:22.190Z,6.90
2018-11-01T02:50:22.204Z,7.70
2018-11-01T02:52:15.617Z,8.00
2018-11-01T02:53:15.579Z,7.30
2018-11-01T02:55:09.001Z,8.90
2018-11-01T02:56:08.884Z,9.70
2018-11-01T02:58:02.294Z,7.90
2018-11-01T02:59:02.283Z,10.50
2018-11-01T03:00:58.228Z,9.30
2018-11-01T03:01:58.130Z,13.10
2018-11-01T03:03:51.492Z,37.30
2018-11-01T03:04:51.442Z,32.00
2018-11-01T03:06:44.867Z,8.20
2018-11-01T03:07:44.843Z,11.30
2018-11-01T03:09:38.237Z,10.00
2018-11-01T03:10:37.880Z,17.50
2018-11-01T03:12:31.550Z,12.70
2018-11-01T03:13:32.089Z,14.40
2018-11-01T03:15:24.380Z,15.40
2018-11-01T03:16:24.372Z,10.00
2018-11-01T03:18:17.839Z,8.60
2018-11-01T03:19:17.735Z,7.50
2018-11-01T03:21:11.266Z,6.60
2018-11-01T03:22:10.774Z,6.10
2018-11-01T03:24:04.551Z,7.40
2018-11-01T03:25:04.113Z,6.80
2018-11-01T03:26:57.601Z,6.40
2018-11-01T03:27:57.838Z,4.00
2018-11-01T03:29:51.133Z,6.50
2018-11-01T03:30:51.187Z,6.10
2018-11-01T03:32:44.639Z,4.70
2018-11-01T03:33:44.566Z,7.90
2018-11-01T03:35:38.026Z,5.70
2018-11-01T03:36:38.486Z,4.60
2018-11-01T03:38:31.448Z,5.10
2018-11-01T03:39:31.308Z,7.50
2018-11-01T03:41:24.710Z,6.20
2018-11-01T03:42:24.645Z,6.70
2018-11-01T03:44:18.694Z,3.90
2018-11-01T03:45:18.676Z,3.80
2018-11-01T03:47:12.115Z,4.70
2018-11-01T03:48:11.503Z,6.80
2018-11-01T03:50:05.817Z,6.40
2018-11-01T03:51:05.500Z,3.80
2018-11-01T03:53:00.662Z,6.30
2018-11-01T03:53:58.941Z,4.60
2018-11-01T03:55:53.381Z,6.70
2018-11-01T03:56:52.338Z,4.70
2018-11-01T03:58:46.271Z,5.70
2018-11-01T03:59:45.677Z,6.20
2018-11-01T04:01:39.027Z,6.60
2018-11-01T04:02:39.070Z,7.20
2018-11-01T04:04:32.379Z,6.20
2018-11-01T04:05:32.014Z,7.30
2018-11-01T04:07:25.738Z,7.60
2018-11-01T04:08:25.739Z,7.50
2018-11-01T04:10:19.187Z,12.10
2018-11-01T04:11:18.243Z,11.40
2018-11-01T04:13:11.638Z,8.40
2018-11-01T04:14:11.584Z,8.90
2018-11-01T04:16:05.346Z,7.90
2018-11-01T04:17:05.275Z,6.70
2018-11-01T04:18:58.143Z,5.20
2018-11-01T04:19:58.053Z,5.60
2018-11-01T04:21:52.482Z,7.70
2018-11-01T04:22:52.432Z,6.10
2018-11-01T04:24:45.829Z,6.20
2018-11-01T04:25:45.474Z,5.40
2018-11-01T04:27:38.879Z,6.90
2018-11-01T04:28:39.177Z,5.20
2018-11-01T04:30:32.540Z,6.00
2018-11-01T04:31:32.213Z,5.30
2018-11-01T04:33:26.524Z,7.40
2018-11-01T04:34:25.896Z,7.60
2018-11-01T04:36:18.980Z,6.40
2018-11-01T04:37:18.892Z,7.70
2018-11-01T04:39:11.806Z,6.80
2018-11-01T04:40:11.978Z,7.60
2018-11-01T04:42:04.847Z,5.80
2018-11-01T04:43:04.649Z,5.90
2018-11-01T04:44:57.804Z,6.50
2018-11-01T04:45:58.024Z,7.00
2018-11-01T04:47:51.147Z,11.90
2018-11-01T04:48:50.800Z,7.90
2018-11-01T04:50:44.593Z,8.40
2018-11-01T04:51:44.496Z,5.50
2018-11-01T04:53:37.839Z,6.90
2018-11-01T04:54:37.926Z,5.70
2018-11-01T04:56:31.755Z,7.10
2018-11-01T04:57:30.866Z,7.60
2018-11-01T04:59:24.254Z,5.70
2018-11-01T05:00:24.820Z,6.10
2018-11-01T05:02:17.615Z,4.90
2018-11-01T05:03:18.140Z,6.80
2018-11-01T05:05:10.906Z,7.50
2018-11-01T05:06:10.429Z,5.90
2018-11-01T05:08:04.152Z,6.40
2018-11-01T05:09:03.766Z,8.30
2018-11-01T05:10:58.227Z,6.00
2018-11-01T05:11:57.967Z,5.50
2018-11-01T05:13:51.611Z,8.00
2018-11-01T05:14:49.979Z,6.30
2018-11-01T05:16:43.142Z,7.10
2018-11-01T05:17:43.209Z,7.40
2018-11-01T05:19:36.345Z,7.20
2018-11-01T05:20:36.605Z,9.50
2018-11-01T05:22:29.728Z,7.30
2018-11-01T05:23:29.901Z,6.90
2018-11-01T05:25:23.082Z,6.60
2018-11-01T05:26:24.605Z,8.00
2018-11-01T05:28:17.040Z,5.40
2018-11-01T05:29:16.984Z,6.20
2018-11-01T05:31:10.373Z,6.30
2018-11-01T05:32:10.019Z,6.70
2018-11-01T05:34:04.430Z,8.20
2018-11-01T05:35:04.319Z,8.10
2018-11-01T05:36:57.695Z,8.30
2018-11-01T05:37:57.265Z,6.70
2018-11-01T05:39:50.935Z,8.90
2018-11-01T05:40:50.881Z,9.00
2018-11-01T05:42:44.316Z,6.30
2018-11-01T05:43:44.146Z,8.40
2018-11-01T05:45:37.734Z,9.40
2018-11-01T05:46:37.107Z,7.50
2018-11-01T05:48:30.994Z,11.20
2018-11-01T05:49:30.467Z,7.90
2018-11-01T05:51:23.352Z,7.60
2018-11-01T05:52:23.558Z,6.70
2018-11-01T05:54:15.903Z,6.90
2018-11-01T05:55:15.841Z,7.20
2018-11-01T05:57:09.526Z,10.80
2018-11-01T05:58:09.540Z,9.30
2018-11-01T06:00:02.224Z,9.70
2018-11-01T06:01:02.059Z,9.20
2018-11-01T06:02:55.860Z,8.10
2018-11-01T06:03:56.031Z,10.30
2018-11-01T06:05:49.301Z,8.10
2018-11-01T06:06:48.788Z,9.50
2018-11-01T06:08:42.663Z,7.70
2018-11-01T06:09:42.229Z,9.00
2018-11-01T06:11:35.570Z,9.50
2018-11-01T06:12:35.582Z,9.90
2018-11-01T06:14:29.818Z,9.20
2018-11-01T06:15:28.893Z,9.50
2018-11-01T06:17:23.771Z,9.20
2018-11-01T06:18:22.189Z,7.70
2018-11-01T06:20:15.563Z,9.40
2018-11-01T06:21:16.112Z,8.70
2018-11-01T06:23:09.280Z,15.60
2018-11-01T06:24:08.894Z,15.30
2018-11-01T06:26:02.534Z,7.10
2018-11-01T06:27:02.250Z,6.50
2018-11-01T06:28:57.456Z,7.70
2018-11-01T06:29:55.624Z,7.20
2018-11-01T06:31:49.230Z,8.50
2018-11-01T06:32:48.933Z,5.60
2018-11-01T06:34:41.867Z,6.40
2018-11-01T06:35:41.812Z,7.60
2018-11-01T06:37:34.718Z,7.50
2018-11-01T06:38:34.666Z,7.50
2018-11-01T06:40:28.105Z,6.80
2018-11-01T06:41:27.992Z,6.90
2018-11-01T06:43:22.402Z,8.70
2018-11-01T06:44:22.373Z,7.10
2018-11-01T06:46:15.229Z,5.80
2018-11-01T06:47:15.218Z,5.20
2018-11-01T06:49:08.622Z,6.80
2018-11-01T06:50:08.562Z,6.70
2018-11-01T06:52:02.337Z,9.20
2018-11-01T06:53:02.233Z,7.80
2018-11-01T06:54:55.687Z,6.70
2018-11-01T06:55:55.600Z,8.70
2018-11-01T06:57:49.248Z,6.00
2018-11-01T06:58:49.058Z,5.60
2018-11-01T07:00:43.275Z,5.90
2018-11-01T07:01:42.877Z,5.30
2018-11-01T07:03:35.617Z,7.80
2018-11-01T07:04:35.788Z,5.50
2018-11-01T07:06:29.249Z,6.50
2018-11-01T07:07:28.374Z,7.40
2018-11-01T07:09:22.057Z,6.40
2018-11-01T07:10:21.704Z,5.60
2018-11-01T07:12:15.452Z,5.80
2018-11-01T07:13:15.767Z,4.60
2018-11-01T07:15:07.946Z,6.90
2018-11-01T07:16:07.927Z,7.50
2018-11-01T07:18:01.310Z,6.00
2018-11-01T07:19:01.270Z,7.40
2018-11-01T07:20:55.247Z,9.90
2018-11-01T07:21:54.643Z,9.10
2018-11-01T07:23:48.095Z,6.50
2018-11-01T07:24:47.467Z,8.20
2018-11-01T07:26:40.354Z,8.30
2018-11-01T07:27:40.369Z,7.70
2018-11-01T07:29:33.963Z,7.70
2018-11-01T07:30:33.730Z,6.80
2018-11-01T07:32:28.102Z,6.20
2018-11-01T07:33:28.048Z,5.30
2018-11-01T07:35:21.430Z,8.50
2018-11-01T07:36:21.414Z,5.90
2018-11-01T07:38:15.552Z,6.10
2018-11-01T07:39:14.792Z,5.00
2018-11-01T07:41:08.265Z,5.60
2018-11-01T07:42:08.133Z,5.60
2018-11-01T07:44:01.355Z,5.40
2018-11-01T07:45:00.980Z,4.90
2018-11-01T07:46:54.612Z,6.00
2018-11-01T07:47:54.344Z,6.30
2018-11-01T07:49:47.805Z,6.70
2018-11-01T07:50:47.705Z,4.50
2018-11-01T07:52:42.737Z,5.20
2018-11-01T07:53:41.071Z,5.50
2018-11-01T07:55:34.242Z,5.70
2018-11-01T07:56:34.205Z,6.80
2018-11-01T07:58:27.887Z,5.90
2018-11-01T07:59:27.553Z,4.40
2018-11-01T08:01:20.500Z,5.40
2018-11-01T08:02:20.425Z,4.90
2018-11-01T08:04:13.367Z,5.70
2018-11-01T08:05:13.288Z,5.10
2018-11-01T08:07:06.967Z,4.90
2018-11-01T08:08:06.663Z,5.10
2018-11-01T08:10:00.058Z,6.90
2018-11-01T08:11:00.015Z,6.70
2018-11-01T08:12:53.916Z,5.30
2018-11-01T08:13:52.877Z,4.80
2018-11-01T08:15:46.489Z,7.60
2018-11-01T08:16:46.262Z,6.80
2018-11-01T08:18:39.362Z,6.60
2018-11-01T08:19:39.169Z,5.70
2018-11-01T08:21:32.512Z,6.90
2018-11-01T08:22:33.042Z,6.40
2018-11-01T08:24:26.226Z,7.30
2018-11-01T08:25:26.114Z,8.40
2018-11-01T08:27:19.624Z,5.80
2018-11-01T08:28:18.655Z,6.40
2018-11-01T08:30:12.233Z,8.10
2018-11-01T08:31:12.004Z,6.40
2018-11-01T08:33:05.697Z,6.90
2018-11-01T08:34:05.378Z,6.60
2018-11-01T08:35:59.172Z,7.10
2018-11-01T08:36:58.805Z,7.50
2018-11-01T08:38:52.482Z,7.90
2018-11-01T08:39:52.454Z,7.10
2018-11-01T08:41:45.550Z,7.60
2018-11-01T08:42:45.483Z,7.90
2018-11-01T08:44:38.411Z,6.30
2018-11-01T08:45:38.344Z,6.00
2018-11-01T08:47:32.130Z,5.90
2018-11-01T08:48:31.717Z,8.70
2018-11-01T08:50:25.166Z,7.00
2018-11-01T08:51:25.073Z,7.30
2018-11-01T08:53:18.281Z,8.30
2018-11-01T08:54:17.983Z,6.60
2018-11-01T08:56:12.725Z,7.40
2018-11-01T08:57:10.838Z,6.90
2018-11-01T08:59:04.897Z,9.70
2018-11-01T09:00:04.183Z,6.10
2018-11-01T09:01:57.407Z,6.30
2018-11-01T09:02:57.200Z,8.40
2018-11-01T09:04:51.144Z,7.60
2018-11-01T09:05:50.489Z,7.10
2018-11-01T09:07:44.015Z,7.30
2018-11-01T09:08:43.858Z,9.00
2018-11-01T09:10:38.554Z,8.70
2018-11-01T09:11:38.219Z,7.60
2018-11-01T09:13:31.661Z,8.70
2018-11-01T09:14:31.728Z,9.00
2018-11-01T09:16:24.999Z,10.00
2018-11-01T09:17:24.967Z,8.60
2018-11-01T09:19:18.505Z,7.50
2018-11-01T09:20:18.321Z,9.60
2018-11-01T09:22:11.975Z,7.80
2018-11-01T09:23:11.672Z,7.90
2018-11-01T09:25:05.109Z,8.70
2018-11-01T09:26:05.616Z,10.10
2018-11-01T09:27:58.512Z,7.90
2018-11-01T09:28:58.882Z,8.20
2018-11-01T09:30:51.428Z,7.40
2018-11-01T09:31:51.240Z,6.50
2018-11-01T09:33:44.146Z,7.50
2018-11-01T09:34:44.208Z,7.40
2018-11-01T09:36:37.010Z,7.80
2018-11-01T09:37:36.977Z,7.80
2018-11-01T09:39:30.649Z,8.40
2018-11-01T09:40:30.325Z,8.20
2018-11-01T09:42:23.852Z,7.00
2018-11-01T09:43:23.693Z,9.70
2018-11-01T09:45:17.665Z,7.20
2018-11-01T09:46:17.214Z,9.70
2018-11-01T09:48:09.984Z,8.70
2018-11-01T09:49:09.931Z,9.40
2018-11-01T09:51:03.384Z,6.70
2018-11-01T09:52:03.275Z,6.70
2018-11-01T09:53:56.184Z,6.80
2018-11-01T09:54:56.206Z,5.80
2018-11-01T09:56:49.033Z,6.90
2018-11-01T09:57:48.991Z,9.50
2018-11-01T09:59:42.584Z,8.30
2018-11-01T10:00:42.364Z,7.30
2018-11-01T10:02:35.479Z,6.50
2018-11-01T10:03:35.210Z,6.60
2018-11-01T10:05:28.165Z,9.00
2018-11-01T10:06:28.107Z,7.60
2018-11-01T10:08:21.872Z,9.60
2018-11-01T10:09:20.922Z,8.00
2018-11-01T10:11:14.575Z,8.90
2018-11-01T10:12:14.296Z,8.50
2018-11-01T10:14:07.680Z,6.80
2018-11-01T10:15:07.717Z,7.70
2018-11-01T10:17:01.106Z,7.20
2018-11-01T10:18:00.922Z,9.20
2018-11-01T10:19:53.922Z,9.00
2018-11-01T10:20:53.861Z,7.80
2018-11-01T10:22:47.360Z,10.10
2018-11-01T10:23:47.230Z,8.50
2018-11-01T10:25:40.597Z,7.70
2018-11-01T10:26:40.558Z,10.20
2018-11-01T10:28:34.187Z,6.50
2018-11-01T10:29:33.946Z,6.70
2018-11-01T10:31:26.828Z,6.70
2018-11-01T10:32:26.812Z,5.90
2018-11-01T10:34:19.736Z,6.00
2018-11-01T10:35:19.665Z,5.60
2018-11-01T10:37:13.279Z,8.00
2018-11-01T10:38:13.057Z,9.00
2018-11-01T10:40:05.922Z,6.70
2018-11-01T10:41:05.885Z,5.30
2018-11-01T10:42:59.255Z,6.60
2018-11-01T10:43:59.219Z,7.30
2018-11-01T10:45:52.643Z,7.10
2018-11-01T10:46:52.585Z,6.90
2018-11-01T10:48:45.957Z,8.10
2018-11-01T10:49:45.938Z,6.40
2018-11-01T10:51:39.327Z,7.90
2018-11-01T10:52:39.316Z,5.80
2018-11-01T10:54:32.214Z,5.50
2018-11-01T10:55:32.169Z,6.10
2018-11-01T10:57:25.610Z,6.50
2018-11-01T10:58:25.553Z,6.20
2018-11-01T11:00:19.111Z,6.30
2018-11-01T11:01:18.975Z,7.20
2018-11-01T11:03:12.529Z,7.50
2018-11-01T11:04:12.296Z,8.80
2018-11-01T11:06:05.856Z,10.50
2018-11-01T11:07:05.658Z,6.50
2018-11-01T11:08:59.032Z,5.90
2018-11-01T11:09:59.021Z,5.30
2018-11-01T11:11:52.413Z,6.80
2018-11-01T11:12:52.361Z,6.90
2018-11-01T11:14:45.272Z,5.30
2018-11-01T11:15:45.251Z,6.50
2018-11-01T11:17:38.614Z,6.60
2018-11-01T11:18:38.625Z,8.90
2018-11-01T11:20:31.904Z,6.80
2018-11-01T11:21:31.498Z,5.80
2018-11-01T11:23:24.356Z,6.00
2018-11-01T11:24:24.337Z,6.00
2018-11-01T11:26:17.387Z,6.70
2018-11-01T11:27:17.202Z,7.40
2018-11-01T11:29:10.586Z,5.80
2018-11-01T11:30:10.665Z,7.70
2018-11-01T11:32:04.191Z,7.10
2018-11-01T11:33:04.029Z,8.20
2018-11-01T11:34:57.117Z,6.90
2018-11-01T11:35:57.133Z,7.50
2018-11-01T11:37:50.416Z,9.80
2018-11-01T11:38:50.164Z,7.50
2018-11-01T11:40:43.527Z,8.60
2018-11-01T11:41:43.484Z,8.70
2018-11-01T11:43:37.227Z,6.20
2018-11-01T11:44:37.551Z,6.80
2018-11-01T11:46:30.113Z,8.00
2018-11-01T11:47:29.707Z,6.50
2018-11-01T11:49:23.424Z,7.30
2018-11-01T11:50:23.645Z,7.20
2018-11-01T11:52:16.927Z,7.70
2018-11-01T11:53:16.492Z,6.00
2018-11-01T11:55:10.281Z,6.50
2018-11-01T11:56:09.808Z,7.10
2018-11-01T11:58:03.241Z,6.60
2018-11-01T11:59:03.187Z,7.40
2018-11-01T12:00:56.588Z,11.40
2018-11-01T12:01:56.537Z,11.20
2018-11-01T12:03:50.294Z,7.70
2018-11-01T12:04:49.895Z,7.60
2018-11-01T12:06:43.313Z,8.50
2018-11-01T12:07:43.269Z,8.90
2018-11-01T12:09:36.195Z,11.70
2018-11-01T12:10:36.158Z,18.00
2018-11-01T12:12:29.538Z,11.20
2018-11-01T12:13:29.486Z,13.50
2018-11-01T12:15:23.245Z,13.70
2018-11-01T12:16:23.250Z,9.10
2018-11-01T12:18:16.564Z,9.20
2018-11-01T12:19:16.204Z,7.80
2018-11-01T12:21:10.132Z,7.70
2018-11-01T12:22:09.615Z,7.90
2018-11-01T12:24:04.341Z,7.60
2018-11-01T12:25:02.933Z,7.00
2018-11-01T12:26:56.694Z,7.00
2018-11-01T12:27:56.274Z,6.60
2018-11-01T12:29:51.905Z,8.70
2018-11-01T12:30:50.656Z,8.70
2018-11-01T12:32:44.575Z,6.20
2018-11-01T12:33:44.063Z,8.00
2018-11-01T12:35:39.412Z,15.70
2018-11-01T12:36:37.749Z,14.50
2018-11-01T12:38:31.111Z,9.80
2018-11-01T12:39:30.720Z,9.20
2018-11-01T12:41:24.538Z,13.10
2018-11-01T12:42:25.957Z,10.40
2018-11-01T12:44:17.901Z,8.40
2018-11-01T12:45:17.839Z,7.20
2018-11-01T12:47:11.802Z,10.90
2018-11-01T12:48:11.356Z,9.70
2018-11-01T12:50:04.731Z,10.70
2018-11-01T12:51:04.243Z,12.70
2018-11-01T12:52:57.980Z,16.30
2018-11-01T12:53:57.948Z,12.70
2018-11-01T12:55:52.110Z,12.30
2018-11-01T12:56:51.545Z,15.40
2018-11-01T12:58:46.205Z,15.90
2018-11-01T12:59:46.194Z,10.50
2018-11-01T13:01:39.715Z,9.10
2018-11-01T13:02:39.356Z,8.20
2018-11-01T13:04:33.660Z,9.90
2018-11-01T13:05:33.577Z,8.90
2018-11-01T13:07:26.975Z,9.10
2018-11-01T13:08:26.505Z,12.60
2018-11-01T13:10:20.852Z,20.60
2018-11-01T13:11:20.092Z,17.70
2018-11-01T13:13:13.339Z,10.60
2018-11-01T13:14:13.262Z,10.10
2018-11-01T13:16:07.444Z,14.40
2018-11-01T13:17:06.604Z,15.70
2018-11-01T13:19:00.320Z,11.30
2018-11-01T13:19:59.980Z,9.10
2018-11-01T13:21:54.332Z,8.40
2018-11-01T13:22:53.474Z,8.40
2018-11-01T13:24:46.323Z,8.00
2018-11-01T13:25:46.235Z,7.30
2018-11-01T13:27:39.102Z,10.10
2018-11-01T13:28:39.074Z,10.20
2018-11-01T13:30:33.525Z,11.50
2018-11-01T13:31:32.468Z,10.80
2018-11-01T13:33:25.856Z,9.00
2018-11-01T13:34:25.764Z,7.10
2018-11-01T13:36:19.237Z,8.30
2018-11-01T13:37:19.128Z,8.70
2018-11-01T13:39:12.123Z,8.30
2018-11-01T13:40:12.326Z,8.80
2018-11-01T13:42:05.390Z,10.10
2018-11-01T13:43:05.359Z,10.10
2018-11-01T13:44:58.809Z,7.70
2018-11-01T13:45:58.736Z,8.00
2018-11-01T13:47:51.634Z,7.00
2018-11-01T13:48:51.601Z,7.40
2018-11-01T13:50:45.012Z,7.50
2018-11-01T13:51:44.948Z,8.90
2018-11-01T13:53:38.361Z,12.90
2018-11-01T13:54:38.387Z,8.40
2018-11-01T13:56:31.777Z,8.40
2018-11-01T13:57:31.673Z,9.40
2018-11-01T13:59:25.104Z,6.90
2018-11-01T14:00:25.042Z,9.10
2018-11-01T14:02:18.427Z,8.40
2018-11-01T14:03:18.388Z,10.50
2018-11-01T14:05:11.795Z,8.80
2018-11-01T14:06:11.804Z,7.80
2018-11-01T14:08:05.198Z,9.10
2018-11-01T14:09:05.172Z,9.80
2018-11-01T14:10:58.091Z,9.30
2018-11-01T14:11:58.046Z,8.40
2018-11-01T14:13:51.718Z,8.60
2018-11-01T14:14:51.654Z,9.90
2018-11-01T14:16:44.425Z,10.80
2018-11-01T14:17:44.262Z,9.80
2018-11-01T14:19:37.645Z,9.00
2018-11-01T14:20:38.207Z,10.90
2018-11-01T14:22:31.073Z,9.30
2018-11-01T14:23:30.974Z,8.60
2018-11-01T14:25:24.495Z,11.60
2018-11-01T14:26:24.315Z,10.20
2018-11-01T14:28:17.707Z,9.50
2018-11-01T14:29:17.664Z,9.60
2018-11-01T14:31:10.673Z,11.30
2018-11-01T14:32:10.528Z,11.10
2018-11-01T14:34:03.908Z,10.60
2018-11-01T14:35:03.881Z,12.50
2018-11-01T14:36:56.872Z,13.30
2018-11-01T14:37:56.757Z,13.00
2018-11-01T14:39:49.655Z,12.00
2018-11-01T14:40:49.614Z,11.60
2018-11-01T14:42:43.003Z,11.20
2018-11-01T14:43:42.977Z,11.90
2018-11-01T14:45:36.344Z,12.20
2018-11-01T14:46:36.325Z,11.50
2018-11-01T14:48:29.693Z,13.90
2018-11-01T14:49:29.662Z,15.70
2018-11-01T14:51:23.070Z,14.70
2018-11-01T14:52:23.537Z,15.50
2018-11-01T14:54:16.753Z,12.00
2018-11-01T14:55:17.418Z,11.50
2018-11-01T14:57:10.265Z,13.10
2018-11-01T14:58:10.563Z,11.30
2018-11-01T15:00:03.615Z,14.50
2018-11-01T15:01:02.443Z,13.00
2018-11-01T15:02:55.332Z,15.40
2018-11-01T15:03:55.346Z,14.50
2018-11-01T15:05:49.076Z,11.50
2018-11-01T15:06:49.316Z,12.40
2018-11-01T15:08:42.441Z,16.60
2018-11-01T15:09:42.403Z,14.30
2018-11-01T15:11:36.338Z,14.10
2018-11-01T15:12:35.260Z,12.90
2018-11-01T15:14:28.651Z,12.70
2018-11-01T15:15:28.615Z,12.20
2018-11-01T15:17:22.038Z,15.00
2018-11-01T15:18:23.004Z,13.30
2018-11-01T15:20:15.132Z,14.10
2018-11-01T15:21:15.043Z,11.50
2018-11-01T15:23:08.438Z,13.80
2018-11-01T15:24:08.387Z,11.70
2018-11-01T15:26:01.393Z,12.50
2018-11-01T15:27:01.277Z,14.80
2018-11-01T15:28:54.702Z,13.00
2018-11-01T15:29:54.675Z,15.00
2018-11-01T15:31:47.557Z,15.80
2018-11-01T15:32:47.518Z,16.40
2018-11-01T15:34:40.435Z,18.50
2018-11-01T15:35:40.368Z,15.40
2018-11-01T15:37:33.312Z,16.00
2018-11-01T15:38:35.818Z,15.80
2018-11-01T15:40:26.132Z,15.80
2018-11-01T15:41:26.104Z,13.60
2018-11-01T15:43:19.457Z,14.80
2018-11-01T15:44:19.432Z,16.50
2018-11-01T15:46:12.400Z,14.50
2018-11-01T15:47:12.315Z,17.80
2018-11-01T15:49:05.675Z,12.50
2018-11-01T15:50:05.649Z,15.40
2018-11-01T15:51:59.131Z,14.90
2018-11-01T15:52:59.001Z,15.50
2018-11-01T15:54:51.894Z,15.80
2018-11-01T15:55:51.862Z,16.00
2018-11-01T15:58:07.079Z,19.90
2018-11-01T15:58:45.260Z,18.50
2018-11-01T16:00:38.124Z,18.80
2018-11-01T16:01:38.091Z,15.90
2018-11-01T16:03:31.085Z,18.50
2018-11-01T16:04:30.962Z,21.20
2018-11-01T16:06:23.848Z,18.90
2018-11-01T16:07:23.813Z,21.30
2018-11-01T16:09:16.709Z,21.60
2018-11-01T16:10:16.811Z,20.80
2018-11-01T16:12:10.057Z,20.40
2018-11-01T16:13:10.033Z,19.50
2018-11-01T16:15:03.546Z,25.90
2018-11-01T16:16:03.380Z,22.00
2018-11-01T16:17:56.883Z,19.90
2018-11-01T16:18:56.867Z,24.70
2018-11-01T16:20:49.740Z,25.30
2018-11-01T16:21:49.715Z,24.60
2018-11-01T16:23:42.623Z,22.50
2018-11-01T16:24:42.597Z,18.30
2018-11-01T16:26:35.469Z,19.60
2018-11-01T16:27:35.445Z,17.30
2018-11-01T16:29:28.336Z,20.00
2018-11-01T16:30:28.310Z,19.60
2018-11-01T16:32:21.228Z,18.90
2018-11-01T16:33:21.162Z,17.90
2018-11-01T16:35:14.056Z,20.70
2018-11-01T16:36:14.032Z,18.40
2018-11-01T16:38:06.917Z,20.70
2018-11-01T16:39:06.889Z,20.00
2018-11-01T16:40:59.809Z,19.80
2018-11-01T16:41:59.756Z,18.30
2018-11-01T16:43:52.738Z,17.70
2018-11-01T16:44:52.762Z,18.80
2018-11-01T16:46:46.543Z,21.80
2018-11-01T16:47:46.071Z,20.30
2018-11-01T16:49:38.947Z,18.60
2018-11-01T16:50:38.929Z,15.50
2018-11-01T16:52:31.860Z,17.10
2018-11-01T16:53:31.776Z,18.90
2018-11-01T16:55:24.670Z,15.60
2018-11-01T16:56:24.641Z,14.80
2018-11-01T16:58:18.062Z,18.00
2018-11-01T16:59:18.005Z,19.70
2018-11-01T17:01:10.897Z,21.80
2018-11-01T17:02:10.876Z,16.40
2018-11-01T17:04:03.763Z,17.20
2018-11-01T17:05:03.735Z,16.60
2018-11-01T17:06:56.747Z,14.90
2018-11-01T17:07:56.633Z,16.20
2018-11-01T17:09:49.579Z,21.00
2018-11-01T17:10:49.521Z,22.90
2018-11-01T17:12:42.916Z,18.40
2018-11-01T17:13:42.880Z,17.10
2018-11-01T17:15:36.238Z,15.60
2018-11-01T17:16:36.209Z,16.50
2018-11-01T17:18:29.585Z,14.30
2018-11-01T17:19:29.569Z,13.50
2018-11-01T17:21:22.437Z,15.20
2018-11-01T17:22:22.423Z,12.80
2018-11-01T17:24:15.832Z,14.70
2018-11-01T17:25:15.760Z,15.90
2018-11-01T17:27:09.154Z,17.10
2018-11-01T17:28:09.123Z,14.90
2018-11-01T17:30:02.015Z,15.70
2018-11-01T17:31:02.004Z,16.20
2018-11-01T17:32:55.394Z,12.80
2018-11-01T17:33:55.411Z,16.00
2018-11-01T17:35:48.731Z,15.00
2018-11-01T17:36:48.721Z,16.20
2018-11-01T17:38:42.166Z,16.30
2018-11-01T17:39:41.604Z,15.50
2018-11-01T17:41:34.514Z,20.30
2018-11-01T17:42:34.621Z,18.90
2018-11-01T17:44:27.377Z,19.50
2018-11-01T17:45:27.291Z,19.50
2018-11-01T17:47:20.367Z,17.80
2018-11-01T17:48:20.223Z,19.30
2018-11-01T17:50:13.645Z,16.60
2018-11-01T17:51:13.701Z,15.40
2018-11-01T17:53:06.997Z,35.80
2018-11-01T17:54:06.929Z,27.90
2018-11-01T17:56:00.346Z,19.10
2018-11-01T17:57:00.288Z,19.40
2018-11-01T17:58:54.404Z,18.50
2018-11-01T17:59:53.667Z,18.40
2018-11-01T18:01:47.120Z,19.90
2018-11-01T18:02:46.602Z,16.50
2018-11-01T18:04:39.509Z,16.60
2018-11-01T18:05:39.374Z,17.10
2018-11-01T18:07:32.758Z,18.80
2018-11-01T18:08:32.809Z,17.60
2018-11-01T18:10:25.808Z,25.10
2018-11-01T18:11:25.612Z,18.30
2018-11-01T18:13:19.010Z,19.40
2018-11-01T18:14:18.953Z,19.70
2018-11-01T18:16:13.304Z,20.60
2018-11-01T18:17:13.287Z,20.60
2018-11-01T18:19:06.655Z,20.80
2018-11-01T18:20:06.633Z,18.50
2018-11-01T18:22:00.009Z,17.90
2018-11-01T18:23:00.003Z,18.30
2018-11-01T18:24:52.881Z,18.00
2018-11-01T18:25:52.844Z,16.70
2018-11-01T18:27:47.127Z,19.40
2018-11-01T18:28:47.056Z,19.40
2018-11-01T18:30:39.927Z,18.60
2018-11-01T18:31:39.900Z,16.50
2018-11-01T18:33:32.826Z,17.30
2018-11-01T18:34:32.786Z,18.30
2018-11-01T18:36:26.145Z,14.70
2018-11-01T18:37:26.139Z,17.10
2018-11-01T18:39:19.635Z,14.90
2018-11-01T18:40:19.468Z,16.20
2018-11-01T18:42:12.909Z,17.50
2018-11-01T18:43:12.851Z,16.30
2018-11-01T18:45:06.297Z,16.30
2018-11-01T18:46:06.200Z,15.40
2018-11-01T18:47:59.085Z,18.30
2018-11-01T18:48:59.097Z,14.30
2018-11-01T18:50:52.511Z,15.50
2018-11-01T18:51:52.409Z,14.90
2018-11-01T18:53:45.953Z,16.40
2018-11-01T18:54:45.860Z,15.10
2018-11-01T18:56:39.222Z,15.40
2018-11-01T18:57:38.747Z,13.80
2018-11-01T18:59:32.135Z,14.70